Gimli, Canada
Current Conditions -  °F | °C
As of 4:00 AM on Sunday 23 Nov 2014 (Local Time) from CYWG Reporting Station
Haze Haze  
Wind Chill: 21°   Ceiling: 400
Heat Index: 32°   Visibility: 6mi
Dew Point: 30°   Wind: 17mph
Humidity: 93%   Direction: 180°S
Pressure: 29.32"   Gusts: NA
Location:  50.64°N, 96.99°W
Report Text: CYWG 231000Z 18015KT 6SM BR OVC004 00/M01 A2932 RMK ST8 SLP941
Loading
Personal Weather Stations






























Interactive Weather Map New forecast layout! Learn more

10-Day Weather Forecast

Advertisements
Track Severe Weather on mobile